Time;durP1;ratioP1;P1;durP2;ratioP2;P2;SDS_P1;SDS_P2;PMS_P1;PMS_P2;Temp;Humidity;BMP_temperature;BMP_pressure;BME280_temperature;BME280_humidity;BME280_pressure;Samples;Min_cycle;Max_cycle;Signal;HPM_P1;HPM_P2
2022/02/05 00:02:16;;;;;;;12.65;5.40;;;;;;;9.99;63.95;101788.50;5004441;28;20054;-76
2022/02/05 00:04:44;;;;;;;7.38;2.70;;;;;;;9.93;63.96;101797.94;5008577;28;20541;-76
2022/02/05 00:07:12;;;;;;;8.55;3.25;;;;;;;9.97;64.47;101791.97;5008769;28;20041;-76
2022/02/05 00:09:58;;;;;;;6.13;2.60;;;;;;;9.97;64.25;101786.69;5008020;28;20413;-76
2022/02/05 00:12:40;;;;;;;6.97;3.40;;;;;;;9.92;64.17;101791.78;5007183;28;20042;-76
2022/02/05 00:40:05;;;;;;;6.65;2.83;;;;;;;9.88;64.15;101760.88;5009378;28;20104;-76
2022/02/05 00:42:38;;;;;;;7.50;2.47;;;;;;;9.86;64.39;101753.75;5009061;28;20045;-76
2022/02/05 00:45:09;;;;;;;11.98;5.53;;;;;;;9.83;64.32;101751.91;5007992;28;20053;-76
2022/02/05 00:47:43;;;;;;;7.85;3.20;;;;;;;9.83;64.46;101762.47;5008940;28;20563;-76
2022/02/05 00:50:17;;;;;;;9.27;4.07;;;;;;;9.81;64.93;101764.16;5008014;28;20445;-77
2022/02/05 00:52:56;;;;;;;9.18;3.60;;;;;;;9.83;65.13;101769.47;5007449;28;20134;-76
2022/02/05 00:55:28;;;;;;;7.15;2.90;;;;;;;9.83;65.14;101780.94;5007441;28;20045;-77
2022/02/05 00:58:02;;;;;;;10.57;2.97;;;;;;;9.86;64.97;101783.66;4991628;28;20553;-77
2022/02/05 01:00:32;;;;;;;7.75;3.42;;;;;;;9.88;65.17;101778.44;5007141;28;20064;-77
2022/02/05 01:03:01;;;;;;;5.90;2.63;;;;;;;9.89;65.21;101772.31;5008484;28;20034;-77
2022/02/05 01:05:29;;;;;;;4.05;1.88;;;;;;;9.87;65.29;101774.91;5007239;28;20493;-77
2022/02/05 01:07:58;;;;;;;9.23;3.90;;;;;;;9.85;65.30;101780.94;5007021;28;20069;-77
2022/02/05 01:10:26;;;;;;;9.50;4.35;;;;;;;9.87;65.49;101768.72;5006607;28;20501;-77
2022/02/05 01:12:58;;;;;;;12.55;4.70;;;;;;;9.90;65.45;101763.56;5007269;28;20066;-76
2022/02/05 01:15:33;;;;;;;12.13;5.75;;;;;;;9.87;65.63;101766.09;5007900;28;20046;-77
2022/02/05 01:18:08;;;;;;;12.70;4.40;;;;;;;9.84;65.64;101761.63;5007052;28;20585;-77
2022/02/05 01:23:28;;;;;;;11.43;4.32;;;;;;;9.67;65.73;101746.94;5006102;28;20124;-77
2022/02/05 01:26:04;;;;;;;14.40;7.10;;;;;;;9.63;65.91;101754.69;4998446;28;20137;-76
2022/02/05 01:28:34;;;;;;;11.23;6.28;;;;;;;9.57;66.32;101763.28;5006539;28;20049;-77
2022/02/05 01:31:02;;;;;;;13.43;4.43;;;;;;;9.56;66.79;101765.03;5006494;28;20045;-76
2022/02/05 01:33:53;;;;;;;7.07;3.85;;;;;;;9.62;66.69;101764.34;5006784;28;20120;-76
2022/02/05 01:39:38;;;;;;;6.22;3.55;;;;;;;9.59;66.76;101770.38;4988961;28;20042;-77
2022/02/05 01:50:34;;;;;;;;;;;;;;;9.80;67.33;101761.44;5007987;28;20050;-77
2022/02/05 01:53:13;;;;;;;5.15;3.15;;;;;;;9.83;67.43;101757.19;5007870;28;19927;-77
2022/02/05 01:56:14;;;;;;;6.40;3.15;;;;;;;9.84;67.12;101755.47;4991532;28;20128;-77
2022/02/05 01:58:55;;;;;;;9.90;5.30;;;;;;;9.79;67.08;101747.34;5003955;28;20038;-77
2022/02/05 02:12:23;;;;;;;11.38;5.15;;;;;;;9.63;67.64;101746.78;4994438;28;20046;-77
2022/02/05 02:14:58;;;;;;;10.27;4.10;;;;;;;9.62;67.89;101752.91;5006720;28;20060;-77
2022/02/05 02:20:30;;;;;;;9.13;3.92;;;;;;;9.64;68.39;101751.22;4994604;28;20042;-77
2022/02/05 02:28:42;;;;;;;8.70;3.60;;;;;;;9.82;68.48;101770.31;5005221;28;20485;-77
2022/02/05 02:31:15;;;;;;;6.82;3.63;;;;;;;9.80;68.53;101764.09;5006551;28;20042;-77
2022/02/05 02:33:48;;;;;;;10.80;4.80;;;;;;;9.81;68.40;101768.50;5007625;28;20095;-76
2022/02/05 02:36:25;;;;;;;7.63;3.78;;;;;;;9.82;68.54;101767.69;5007149;28;20501;-76
2022/02/05 02:38:59;;;;;;;5.13;3.13;;;;;;;9.87;68.45;101769.63;4978422;28;20034;-76
2022/02/05 02:41:31;;;;;;;9.65;4.40;;;;;;;9.94;68.37;101776.00;5003908;28;20049;-76
2022/02/05 02:43:59;;;;;;;10.80;5.13;;;;;;;9.98;68.58;101783.16;4999322;28;20168;-76
2022/02/05 02:46:27;;;;;;;18.20;9.20;;;;;;;10.02;68.52;101781.56;5005328;28;20050;-77
2022/02/05 02:48:55;;;;;;;14.35;7.65;;;;;;;10.05;68.51;101776.38;5013331;28;20042;-76
2022/02/05 02:57:01;;;;;;;6.00;3.22;;;;;;;10.02;68.58;101781.56;5009364;28;20050;-76
2022/02/05 02:59:36;;;;;;;5.28;3.65;;;;;;;10.03;68.66;101778.97;5009433;28;20649;-76
2022/02/05 03:02:11;;;;;;;18.95;7.55;;;;;;;10.02;68.39;101777.19;5009521;28;20504;-76
2022/02/05 03:04:39;;;;;;;12.05;4.93;;;;;;;10.05;68.62;101782.53;5008799;28;20105;-76
2022/02/05 03:07:07;;;;;;;6.57;3.75;;;;;;;10.04;68.75;101791.31;5009833;28;20038;-76
2022/02/05 03:09:37;;;;;;;8.18;3.58;;;;;;;10.00;68.79;101785.03;5009425;28;20120;-76
2022/02/05 03:12:05;;;;;;;6.03;3.20;;;;;;;9.98;68.76;101776.16;5008946;28;20114;-76
2022/02/05 03:14:33;;;;;;;6.22;3.35;;;;;;;10.02;68.88;101782.44;5009480;28;20041;-76
2022/02/05 03:17:04;;;;;;;8.23;3.88;;;;;;;10.03;68.75;101778.06;5008542;28;20230;-76
2022/02/05 03:19:34;;;;;;;5.28;3.10;;;;;;;10.02;68.86;101782.44;5008057;28;20103;-75
2022/02/05 03:22:02;;;;;;;6.50;2.97;;;;;;;9.98;68.98;101773.50;5008550;28;20034;-77
2022/02/05 03:24:29;;;;;;;7.93;3.40;;;;;;;9.93;68.82;101777.75;4993046;28;20045;-76
2022/02/05 03:26:59;;;;;;;10.10;5.72;;;;;;;9.91;68.70;101771.50;5010227;28;20149;-77
2022/02/05 03:29:27;;;;;;;6.30;3.53;;;;;;;9.85;68.70;101765.13;5009823;28;20038;-76
2022/02/05 03:31:55;;;;;;;7.20;2.90;;;;;;;9.81;68.80;101763.25;5010831;28;20096;-76
2022/02/05 03:34:22;;;;;;;7.53;3.97;;;;;;;9.76;68.90;101764.84;5008707;28;20042;-77
2022/02/05 03:36:50;;;;;;;9.20;5.00;;;;;;;9.69;69.05;101769.00;4996660;28;20053;-76
2022/02/05 03:39:18;;;;;;;12.70;4.47;;;;;;;9.65;68.96;101774.13;5009985;28;20061;-78
2022/02/05 03:41:46;;;;;;;8.85;4.32;;;;;;;9.62;69.21;101771.34;5009822;28;20092;-77
2022/02/05 03:44:15;;;;;;;6.93;3.92;;;;;;;9.62;69.24;101774.00;5009798;28;20038;-77
2022/02/05 03:46:43;;;;;;;5.22;2.88;;;;;;;9.58;69.36;101780.91;5009334;28;20042;-77
2022/02/05 03:49:13;;;;;;;6.45;3.28;;;;;;;9.50;69.66;101772.72;5009604;28;20049;-76
2022/02/05 03:51:41;;;;;;;6.57;2.70;;;;;;;9.41;70.06;101776.75;5008410;28;20118;-76
2022/02/05 03:54:09;;;;;;;4.43;2.90;;;;;;;9.39;70.09;101779.31;5009822;28;20052;-76
2022/02/05 03:56:36;;;;;;;3.65;2.25;;;;;;;9.38;70.08;101788.09;5008077;28;20117;-77
2022/02/05 03:59:04;;;;;;;8.43;3.13;;;;;;;9.33;70.39;101780.81;5008355;28;20517;-77
2022/02/05 04:01:34;;;;;;;9.98;4.55;;;;;;;9.32;70.58;101779.06;5007654;28;20441;-76
2022/02/05 04:04:01;;;;;;;12.98;5.68;;;;;;;9.28;70.84;101780.66;5007197;28;20107;-76
2022/02/05 04:06:29;;;;;;;20.23;9.90;;;;;;;9.26;70.55;101782.34;5008158;28;20125;-77
2022/02/05 04:09:04;;;;;;;9.32;5.15;;;;;;;9.19;70.77;101785.59;5007565;28;20042;-77
2022/02/05 04:11:36;;;;;;;9.88;4.13;;;;;;;9.12;70.98;101794.13;5007976;28;20794;-76
2022/02/05 04:16:51;;;;;;;4.78;3.17;;;;;;;9.00;71.64;101789.25;5008267;28;20091;-76
2022/02/05 04:19:18;;;;;;;8.23;3.45;;;;;;;8.99;71.55;101790.09;4991417;28;20394;-76
2022/02/05 04:21:46;;;;;;;8.63;4.32;;;;;;;8.94;71.81;101791.66;4993243;28;20045;-76
2022/02/05 04:24:14;;;;;;;10.95;3.47;;;;;;;8.92;71.79;101797.72;5007208;28;20046;-76
2022/02/05 04:26:43;;;;;;;9.80;5.03;;;;;;;8.93;71.79;101794.22;5007772;28;20044;-76
2022/02/05 04:29:12;;;;;;;17.38;7.30;;;;;;;8.94;71.77;101790.75;4997205;28;20056;-76
2022/02/05 04:31:40;;;;;;;9.73;4.47;;;;;;;8.90;71.76;101797.66;5008500;28;20070;-77
2022/02/05 04:34:09;;;;;;;9.77;4.43;;;;;;;8.83;71.93;101790.34;5008912;28;20038;-76
2022/02/05 04:36:38;;;;;;;8.75;3.08;;;;;;;8.72;71.94;101796.94;5007471;28;20062;-77
2022/02/05 04:39:10;;;;;;;6.38;3.33;;;;;;;8.74;72.15;101798.78;5007474;28;20042;-76
2022/02/05 04:41:46;;;;;;;6.85;3.63;;;;;;;8.74;72.11;101803.13;5007759;28;20401;-77
2022/02/05 04:44:22;;;;;;;6.55;2.78;;;;;;;8.71;72.06;101806.56;5005130;28;20042;-77
2022/02/05 04:55:28;;;;;;;5.53;3.05;;;;;;;8.65;72.70;101811.59;5008273;28;20045;-76
2022/02/05 04:58:07;;;;;;;9.40;3.67;;;;;;;8.60;72.65;101807.00;5007161;28;20052;-77
2022/02/05 05:00:51;;;;;;;9.70;4.10;;;;;;;8.58;72.71;101808.66;4992353;28;20042;-76
2022/02/05 05:03:36;;;;;;;6.78;3.53;;;;;;;8.55;72.26;101808.50;5007970;28;20126;-76
2022/02/05 05:06:26;;;;;;;6.70;3.70;;;;;;;8.51;72.34;101811.88;5006576;28;20128;-76
2022/02/05 05:09:08;;;;;;;13.00;7.78;;;;;;;8.51;72.79;101814.50;5001726;28;20046;-76
2022/02/05 05:11:49;;;;;;;3.95;3.03;;;;;;;8.52;72.95;101813.66;5007005;28;20636;-76
2022/02/05 05:19:49;;;;;;;5.22;3.22;;;;;;;8.54;73.48;101818.13;5007728;28;20072;-76
2022/02/05 05:22:18;;;;;;;5.07;2.75;;;;;;;8.55;73.70;101814.69;5007307;28;20125;-76
2022/02/05 05:24:45;;;;;;;3.85;2.53;;;;;;;8.54;73.51;101825.13;5006830;28;20046;-76
2022/02/05 05:27:13;;;;;;;4.60;2.55;;;;;;;8.57;73.63;101822.63;5006930;28;20116;-75
2022/02/05 05:29:41;;;;;;;5.85;3.55;;;;;;;8.57;73.72;101820.00;5006096;28;20121;-76
2022/02/05 05:32:09;;;;;;;7.10;3.88;;;;;;;8.56;73.38;101824.38;5006929;28;20117;-76
2022/02/05 05:34:37;;;;;;;6.00;2.90;;;;;;;8.52;73.40;101829.47;5007574;28;20042;-76
2022/02/05 05:37:05;;;;;;;7.50;4.10;;;;;;;8.46;73.51;101824.84;5008147;28;20490;-76
2022/02/05 05:39:36;;;;;;;4.93;3.03;;;;;;;8.48;73.59;101827.50;5007188;28;20538;-76
2022/02/05 05:42:07;;;;;;;9.05;4.32;;;;;;;8.53;73.62;101832.16;5008778;28;20046;-76
2022/02/05 05:45:13;;;;;;;10.60;4.90;;;;;;;8.53;73.30;101832.16;5006902;28;20402;-76
2022/02/05 05:47:52;;;;;;;9.70;5.32;;;;;;;8.50;73.66;101833.75;5006256;28;20050;-76
2022/02/05 05:53:06;;;;;;;10.35;4.68;;;;;;;8.61;73.37;101837.72;5002652;28;20096;-76
2022/02/05 05:55:35;;;;;;;7.18;4.40;;;;;;;8.61;73.63;101822.81;5002780;28;20490;-76
2022/02/05 05:58:04;;;;;;;10.00;5.82;;;;;;;8.64;73.84;101837.84;5006904;28;20044;-76
2022/02/05 06:00:31;;;;;;;9.13;5.60;;;;;;;8.87;74.13;101830.84;5007785;28;20070;-76
2022/02/05 06:02:59;;;;;;;14.80;5.93;;;;;;;9.23;74.46;101842.84;5006400;28;20092;-76
2022/02/05 06:05:27;;;;;;;8.70;4.50;;;;;;;9.52;74.17;101830.72;5007416;28;20448;-76
2022/02/05 06:07:54;;;;;;;8.32;3.85;;;;;;;9.82;73.86;101829.22;5007414;28;20506;-77
2022/02/05 06:10:22;;;;;;;9.73;4.32;;;;;;;10.14;73.73;101834.72;5007024;28;20057;-76
2022/02/05 06:12:52;;;;;;;15.98;9.40;;;;;;;10.39;73.38;101838.28;5008046;28;20052;-77
2022/02/05 06:15:20;;;;;;;22.92;11.30;;;;;;;10.64;73.53;101834.69;5006914;28;20037;-77
2022/02/05 06:17:50;;;;;;;54.95;24.17;;;;;;;11.02;73.70;101828.00;5006651;28;20065;-77
2022/02/05 06:20:18;;;;;;;79.13;39.67;;;;;;;11.39;73.76;101830.00;5007122;28;20092;-76
2022/02/05 06:22:46;;;;;;;29.23;13.25;;;;;;;11.68;73.31;101828.22;5006742;28;20042;-76
2022/02/05 06:25:14;;;;;;;12.18;5.88;;;;;;;11.93;73.24;101832.47;4991055;28;20137;-76
2022/02/05 06:27:41;;;;;;;6.95;3.80;;;;;;;12.15;72.80;101836.56;5003317;28;20532;-76
2022/02/05 06:30:13;;;;;;;6.85;2.92;;;;;;;12.38;72.18;101843.34;5009975;28;20065;-76
2022/02/05 06:32:41;;;;;;;4.35;2.00;;;;;;;12.57;70.68;101842.97;5011549;28;20037;-77
2022/02/05 06:35:10;;;;;;;4.40;2.00;;;;;;;12.75;68.90;101848.69;5009147;28;20046;-77
2022/02/05 06:37:38;;;;;;;10.88;5.75;;;;;;;12.89;67.22;101846.38;5010428;28;20129;-77
2022/02/05 06:40:07;;;;;;;4.15;1.90;;;;;;;13.13;66.72;101846.97;5007404;28;20038;-76
2022/02/05 06:42:35;;;;;;;5.68;2.58;;;;;;;13.38;66.46;101859.03;4993130;28;20046;-77
2022/02/05 06:45:03;;;;;;;4.38;2.20;;;;;;;13.66;65.95;101856.94;5009844;28;20049;-77
2022/02/05 06:47:33;;;;;;;4.60;2.00;;;;;;;13.95;65.43;101842.50;5009355;28;20121;-77
2022/02/05 06:50:01;;;;;;;4.85;2.10;;;;;;;14.23;65.44;101854.53;5010076;28;20667;-76
2022/02/05 06:52:28;;;;;;;4.35;2.40;;;;;;;14.50;65.10;101848.84;5010251;28;20038;-77
2022/02/05 06:54:56;;;;;;;6.03;1.85;;;;;;;14.75;64.10;101843.97;5011144;28;20622;-77
2022/02/05 06:57:24;;;;;;;2.67;1.80;;;;;;;14.88;61.67;101842.38;5010084;28;20120;-78
2022/02/05 06:59:51;;;;;;;5.60;2.00;;;;;;;15.14;60.63;101845.44;5009775;28;20046;-77
2022/02/05 07:02:19;;;;;;;3.38;1.85;;;;;;;15.25;59.57;101838.50;5010401;28;20053;-77
2022/02/05 07:04:49;;;;;;;5.22;2.10;;;;;;;15.40;58.95;101846.69;5009895;28;20045;-77
2022/02/05 07:07:16;;;;;;;5.75;2.90;;;;;;;15.41;58.64;101848.47;5010591;28;20077;-78
2022/02/05 07:09:44;;;;;;;3.85;2.50;;;;;;;15.10;58.20;101847.13;5008086;28;20070;-77
2022/02/05 07:12:12;;;;;;;3.65;2.38;;;;;;;15.23;58.52;101844.69;5006422;28;20397;-76
2022/02/05 07:14:46;;;;;;;4.45;2.35;;;;;;;15.65;58.40;101841.69;5007447;28;20390;-77
2022/02/05 07:17:20;;;;;;;19.17;10.55;;;;;;;15.82;58.02;101845.44;5009320;28;20105;-77
2022/02/05 07:20:02;;;;;;;16.08;7.30;;;;;;;16.02;58.74;101845.66;5001808;28;20057;-77
2022/02/05 07:22:35;;;;;;;4.63;2.70;;;;;;;16.31;59.10;101845.09;4995270;28;20042;-77
2022/02/05 07:30:28;;;;;;;8.20;3.60;;;;;;;16.96;58.25;101838.53;5006836;28;20050;-74
2022/02/05 07:32:56;;;;;;;6.53;2.90;;;;;;;17.16;57.79;101844.91;5008956;28;20693;-74
2022/02/05 07:35:26;;;;;;;5.63;2.40;;;;;;;17.26;57.25;101830.75;5000298;28;20050;-76
2022/02/05 07:37:56;;;;;;;5.97;2.70;;;;;;;17.38;56.83;101836.13;5003124;28;20108;-75
2022/02/05 07:40:24;;;;;;;4.72;2.78;;;;;;;17.48;56.18;101832.63;4997827;28;20038;-74
2022/02/05 07:42:52;;;;;;;8.35;4.10;;;;;;;17.57;55.21;101842.44;5008300;28;20034;-75
2022/02/05 07:45:21;;;;;;;9.15;4.35;;;;;;;17.68;54.87;101831.84;4994795;28;20049;-76
2022/02/05 07:47:49;;;;;;;7.70;4.00;;;;;;;17.84;54.61;101836.34;5007876;28;20049;-75
2022/02/05 07:50:17;;;;;;;6.13;4.07;;;;;;;17.91;53.98;101844.41;5008548;28;20046;-75
2022/02/05 07:52:46;;;;;;;7.53;3.88;;;;;;;17.95;54.08;101839.03;5007613;28;20034;-75
2022/02/05 07:55:14;;;;;;;7.20;4.90;;;;;;;18.07;54.15;101837.28;5005336;28;20149;-76
2022/02/05 07:57:42;;;;;;;9.10;5.50;;;;;;;18.21;53.76;101840.00;5004762;28;20034;-75
2022/02/05 08:00:10;;;;;;;8.95;5.32;;;;;;;18.17;53.60;101839.09;5002763;28;20048;-74
2022/02/05 08:02:41;;;;;;;8.15;4.43;;;;;;;18.12;52.22;101838.19;5006441;28;20383;-75
2022/02/05 08:05:10;;;;;;;8.57;4.20;;;;;;;18.27;52.53;101848.91;5010109;28;20128;-75
2022/02/05 08:07:37;;;;;;;18.02;9.52;;;;;;;18.45;51.91;101842.69;4993440;28;20034;-74
2022/02/05 08:10:09;;;;;;;10.43;5.30;;;;;;;18.45;51.66;101841.78;5010362;28;20040;-75
2022/02/05 08:12:40;;;;;;;3.33;1.67;;;;;;;18.46;52.04;101843.56;5009424;28;20069;-76
2022/02/05 08:15:09;;;;;;;6.13;2.22;;;;;;;18.49;51.56;101849.84;5007535;28;20046;-76
2022/02/05 08:17:38;;;;;;;4.18;2.20;;;;;;;18.58;51.59;101847.19;5012296;28;20145;-75
2022/02/05 08:20:06;;;;;;;6.28;1.98;;;;;;;18.62;51.04;101846.31;5003980;28;20513;-76
2022/02/05 08:22:33;;;;;;;3.42;1.75;;;;;;;18.81;51.24;101852.53;4999332;28;20132;-76
2022/02/05 08:25:01;;;;;;;5.72;2.30;;;;;;;19.01;51.43;101855.19;4997399;28;20041;-76
2022/02/05 08:27:30;;;;;;;3.47;1.92;;;;;;;19.07;50.78;101861.44;5006790;28;20050;-76
2022/02/05 08:30:00;;;;;;;4.32;1.70;;;;;;;19.07;50.33;101863.22;5005121;28;20060;-75
2022/02/05 08:32:29;;;;;;;6.15;2.17;;;;;;;19.23;50.54;101858.72;5002072;28;20129;-75
2022/02/05 08:34:59;;;;;;;4.28;2.20;;;;;;;19.40;50.33;101856.88;4988311;28;20042;-76
2022/02/05 08:37:28;;;;;;;6.15;2.80;;;;;;;19.44;49.34;101853.28;5003722;28;20042;-75
2022/02/05 08:39:56;;;;;;;5.18;2.05;;;;;;;19.52;49.74;101853.31;4988587;28;20045;-76
2022/02/05 08:42:24;;;;;;;6.10;2.05;;;;;;;19.56;48.77;101847.91;5007448;28;20052;-75
2022/02/05 08:44:53;;;;;;;5.68;2.13;;;;;;;19.65;48.82;101847.88;5006710;28;20100;-76
2022/02/05 08:47:21;;;;;;;4.43;2.25;;;;;;;19.57;48.19;101843.44;5006277;28;20099;-75
2022/02/05 08:49:48;;;;;;;4.38;2.25;;;;;;;19.67;48.11;101837.19;5003320;28;20440;-76
2022/02/05 08:52:16;;;;;;;2.45;1.48;;;;;;;19.72;48.05;101838.03;4997638;28;20133;-76
2022/02/05 08:54:45;;;;;;;5.63;1.90;;;;;;;19.76;47.77;101831.75;4997531;28;20093;-75
2022/02/05 08:57:13;;;;;;;6.93;1.80;;;;;;;19.75;47.29;101836.25;5012260;28;20434;-76
2022/02/05 08:59:50;;;;;;;4.43;1.63;;;;;;;19.73;47.24;101838.03;5002927;28;20053;-76
2022/02/05 09:02:26;;;;;;;6.38;2.80;;;;;;;19.77;47.98;101831.75;5002530;28;20049;-74
2022/02/05 09:05:04;;;;;;;3.10;1.20;;;;;;;19.84;47.46;101830.81;5000263;28;20045;-74
2022/02/05 09:07:32;;;;;;;4.32;1.77;;;;;;;19.67;46.94;101827.34;5007201;28;21325;-75
2022/02/05 09:10:24;;;;;;;7.30;2.30;;;;;;;19.90;47.22;101833.47;5017779;28;20045;-75
2022/02/05 09:13:24;;;;;;;7.47;4.28;;;;;;;20.05;46.97;101826.25;5005496;28;20057;-75
2022/02/05 09:15:52;;;;;;;6.68;2.83;;;;;;;20.09;47.16;101826.19;5006174;28;20124;-75
2022/02/05 09:18:21;;;;;;;7.18;2.70;;;;;;;20.10;46.50;101821.72;5006478;28;20548;-74
2022/02/05 09:20:49;;;;;;;5.55;2.42;;;;;;;20.22;46.55;101822.53;5004941;28;20052;-74
2022/02/05 09:23:16;;;;;;;5.43;2.40;;;;;;;20.30;46.79;101811.75;5002261;28;20120;-74
2022/02/05 09:25:44;;;;;;;9.90;3.40;;;;;;;20.35;46.85;101818.00;5020971;28;20048;-74
2022/02/05 09:28:12;;;;;;;7.22;2.72;;;;;;;20.51;46.99;101817.00;5000880;28;20125;-74
2022/02/05 09:30:48;;;;;;;7.45;2.08;;;;;;;20.56;46.84;101804.41;5005012;28;20084;-74
2022/02/05 09:33:16;;;;;;;6.93;2.63;;;;;;;20.66;47.24;101806.13;5001994;28;20041;-74
2022/02/05 09:35:45;;;;;;;5.70;2.75;;;;;;;20.70;46.36;101804.31;5005923;28;20037;-75
2022/02/05 09:38:13;;;;;;;8.63;3.42;;;;;;;20.55;45.63;101793.69;5006339;28;20107;-75
2022/02/05 09:40:41;;;;;;;8.93;2.90;;;;;;;20.57;45.62;101794.56;4995606;28;20050;-76
2022/02/05 09:43:08;;;;;;;9.15;4.03;;;;;;;20.53;45.13;101791.03;4999532;28;20426;-76
2022/02/05 09:45:36;;;;;;;6.63;2.08;;;;;;;20.53;44.85;101785.69;5002698;28;20696;-76
2022/02/05 09:48:05;;;;;;;9.48;4.95;;;;;;;20.46;45.21;101785.75;5003906;28;20053;-76
2022/02/05 09:50:33;;;;;;;6.68;2.63;;;;;;;20.44;45.39;101788.44;5002014;28;20038;-76
2022/02/05 09:53:13;;;;;;;3.38;1.80;;;;;;;20.52;45.32;101788.38;5003888;28;20046;-75
2022/02/05 09:55:41;;;;;;;5.93;1.88;;;;;;;20.60;45.44;101779.34;5000528;28;20054;-76
2022/02/05 09:58:10;;;;;;;8.98;3.25;;;;;;;20.64;45.28;101777.53;4998790;28;20100;-76
2022/02/05 10:00:37;;;;;;;9.55;2.05;;;;;;;20.67;45.55;101770.34;5000548;28;20053;-76
2022/02/05 10:03:25;;;;;;;3.38;1.20;;;;;;;20.60;44.81;101774.00;5011652;28;20045;-76
2022/02/05 10:06:09;;;;;;;7.32;2.78;;;;;;;20.66;45.02;101762.31;4987860;28;20057;-75
2022/02/05 10:08:39;;;;;;;5.13;1.90;;;;;;;20.67;45.10;101762.28;4991556;28;20371;-76
2022/02/05 10:11:07;;;;;;;5.28;2.28;;;;;;;20.60;44.91;101752.53;4992094;28;20042;-76
2022/02/05 10:13:35;;;;;;;5.57;2.35;;;;;;;20.53;44.95;101745.44;4997719;28;20092;-76
2022/02/05 10:16:03;;;;;;;4.88;1.85;;;;;;;20.41;44.45;101741.97;5009961;28;20486;-76
2022/02/05 10:18:33;;;;;;;5.40;1.58;;;;;;;20.46;44.66;101738.34;4992699;28;20045;-76
2022/02/05 10:21:03;;;;;;;6.35;2.20;;;;;;;20.55;44.91;101729.31;4993675;28;20060;-76
2022/02/05 10:23:32;;;;;;;5.72;1.95;;;;;;;20.42;44.32;101733.91;4993034;28;20073;-76
2022/02/05 10:26:02;;;;;;;6.53;2.15;;;;;;;20.20;44.37;101725.13;4993695;28;20057;-75
2022/02/05 10:28:30;;;;;;;6.25;2.65;;;;;;;20.26;44.46;101724.19;4995970;28;20402;-76
2022/02/05 10:30:58;;;;;;;4.97;1.70;;;;;;;20.39;43.92;101728.56;5012466;28;20049;-75
2022/02/05 10:33:29;;;;;;;4.47;1.30;;;;;;;20.51;43.40;101712.34;5014718;28;20561;-75
2022/02/05 10:36:03;;;;;;;6.35;2.40;;;;;;;20.49;42.98;101708.78;5026691;28;20046;-76
2022/02/05 10:44:12;;;;;;;5.65;2.88;;;;;;;20.45;43.54;101688.28;5003598;28;20061;-76
2022/02/05 10:46:42;;;;;;;3.92;1.50;;;;;;;20.54;43.02;101690.88;5006459;28;20409;-76
2022/02/05 10:49:11;;;;;;;8.70;3.67;;;;;;;20.64;42.67;101687.19;5003833;28;20042;-75
2022/02/05 10:51:42;;;;;;;6.50;3.05;;;;;;;20.62;43.08;101683.59;5012981;28;20133;-75
2022/02/05 10:54:19;;;;;;;10.05;3.83;;;;;;;20.53;43.41;101683.72;5026120;28;20062;-76
2022/02/05 10:57:10;;;;;;;7.18;1.80;;;;;;;20.43;43.31;101679.34;5007316;28;20046;-76
2022/02/05 11:05:39;;;;;;;14.73;4.43;;;;;;;20.40;43.08;101679.41;5000551;28;20049;-74
2022/02/05 11:08:07;;;;;;;6.78;2.55;;;;;;;20.19;39.50;101677.78;4998209;28;20042;-74
2022/02/05 11:19:00;;;;;;;3.70;1.42;;;;;;;19.90;38.90;101671.75;4996121;28;20045;-74
2022/02/05 11:21:31;;;;;;;3.08;1.40;;;;;;;19.96;38.47;101676.16;5008190;28;20053;-75
2022/02/05 11:24:02;;;;;;;4.60;1.50;;;;;;;19.90;39.28;101669.06;5000349;28;20046;-75
2022/02/05 11:26:31;;;;;;;3.42;1.08;;;;;;;19.79;39.87;101661.13;4988295;28;20064;-76
2022/02/05 11:29:03;;;;;;;3.88;1.40;;;;;;;19.68;40.37;101670.16;4994732;28;20514;-74
2022/02/05 11:31:34;;;;;;;2.90;1.25;;;;;;;19.55;40.31;101665.78;4991975;28;20050;-75
2022/02/05 11:34:24;;;;;;;2.30;1.20;;;;;;;19.34;40.76;101666.78;5007928;28;20030;-75
2022/02/05 11:37:05;;;;;;;2.17;1.08;;;;;;;19.18;41.10;101665.06;5006245;28;20054;-75
2022/02/05 11:39:47;;;;;;;3.97;1.60;;;;;;;19.05;41.96;101667.81;5008486;28;20042;-75
2022/02/05 11:42:26;;;;;;;6.18;1.80;;;;;;;19.08;42.43;101669.59;5009797;28;20495;-75
2022/02/05 11:44:57;;;;;;;8.18;2.60;;;;;;;19.19;42.74;101664.16;4999178;28;20105;-74
2022/02/05 11:47:33;;;;;;;9.02;3.85;;;;;;;19.26;43.01;101663.25;5007390;28;20053;-75
2022/02/05 11:50:21;;;;;;;5.18;2.55;;;;;;;19.33;43.61;101662.31;4995837;28;20130;-76
2022/02/05 11:52:59;;;;;;;7.20;1.85;;;;;;;19.25;43.90;101656.09;4988025;28;20042;-76
2022/02/05 11:55:39;;;;;;;8.90;2.80;;;;;;;18.89;44.86;101655.41;4990130;28;20047;-75
2022/02/05 11:58:09;;;;;;;5.38;2.55;;;;;;;18.87;44.88;101659.88;4997325;28;20045;-74
2022/02/05 12:00:39;;;;;;;5.05;2.35;;;;;;;18.81;44.72;101662.56;5007519;28;20076;-75
2022/02/05 12:03:35;;;;;;;9.23;3.50;;;;;;;18.71;45.02;101653.66;5020399;28;20180;-75
2022/02/05 12:06:12;;;;;;;3.33;1.52;;;;;;;18.68;45.56;101659.03;4999751;28;20038;-75
2022/02/05 12:08:43;;;;;;;2.92;1.00;;;;;;;18.63;45.92;101644.81;5005629;28;20041;-75
2022/02/05 12:11:30;;;;;;;5.05;1.10;;;;;;;18.60;47.10;101649.25;5009806;28;20053;-75
2022/02/05 12:14:16;;;;;;;6.93;1.90;;;;;;;18.53;48.31;101655.47;5006009;28;20049;-75
2022/02/05 12:17:16;;;;;;;4.93;1.55;;;;;;;18.41;49.32;101651.06;5006855;28;20398;-75
2022/02/05 12:20:02;;;;;;;7.45;1.52;;;;;;;18.31;49.70;101650.19;5018129;28;20045;-75
2022/02/05 12:22:59;;;;;;;8.13;1.48;;;;;;;18.22;50.38;101650.22;5008717;28;20050;-75
2022/02/05 12:25:26;;;;;;;8.05;1.33;;;;;;;18.15;51.32;101645.75;5006339;28;20050;-75
2022/02/05 12:27:54;;;;;;;5.45;2.22;;;;;;;18.18;51.70;101655.56;5008638;28;20038;-75
2022/02/05 12:30:42;;;;;;;12.50;1.85;;;;;;;18.18;52.23;101653.75;5005402;28;20058;-75
2022/02/05 12:33:12;;;;;;;9.40;1.50;;;;;;;18.14;52.09;101659.13;4993714;28;20049;-74
2022/02/05 12:35:52;;;;;;;9.25;1.42;;;;;;;18.15;52.29;101644.88;5009484;28;20132;-75
2022/02/05 12:38:20;;;;;;;5.35;2.10;;;;;;;18.12;52.51;101642.19;5007035;28;20700;-74
2022/02/05 12:40:50;;;;;;;4.95;1.30;;;;;;;18.07;52.79;101636.84;5004116;28;20034;-75
2022/02/05 12:43:20;;;;;;;5.85;1.30;;;;;;;18.03;52.98;101644.88;4997854;28;20069;-75
2022/02/05 12:45:55;;;;;;;5.60;1.77;;;;;;;18.01;53.32;101642.22;5002347;28;20057;-76
2022/02/05 12:48:28;;;;;;;9.40;1.75;;;;;;;17.92;53.44;101643.09;5004620;28;20128;-75
2022/02/05 12:50:58;;;;;;;6.78;1.40;;;;;;;17.84;53.99;101639.56;5006828;28;20041;-76
2022/02/05 12:53:32;;;;;;;9.25;1.48;;;;;;;17.77;54.12;101643.13;5008866;28;20053;-75
2022/02/05 12:56:12;;;;;;;7.33;1.57;;;;;;;17.76;54.51;101641.34;5007097;28;20461;-76
2022/02/05 12:59:01;;;;;;;6.40;1.35;;;;;;;17.72;54.49;101641.34;4997839;28;20039;-74
2022/02/05 13:01:29;;;;;;;4.70;1.48;;;;;;;17.62;54.29;101643.09;4994327;28;20073;-75
2022/02/05 13:04:14;;;;;;;10.43;1.70;;;;;;;17.58;54.39;101637.72;5004246;28;20046;-75
2022/02/05 13:06:42;;;;;;;5.63;1.50;;;;;;;17.53;54.59;101641.25;4989390;28;20146;-75
2022/02/05 13:09:20;;;;;;;10.95;1.70;;;;;;;17.47;54.75;101643.94;4996067;28;20081;-76
2022/02/05 13:11:55;;;;;;;8.50;1.15;;;;;;;17.43;55.21;101644.81;4996747;28;20061;-76
2022/02/05 13:14:35;;;;;;;4.57;0.77;;;;;;;17.37;55.48;101650.16;5005884;28;20050;-75
2022/02/05 13:17:03;;;;;;;6.45;1.08;;;;;;;17.33;55.59;101650.13;5006577;28;20505;-75
2022/02/05 13:19:51;;;;;;;4.47;1.50;;;;;;;17.32;55.58;101654.59;5001196;28;20532;-75
2022/02/05 13:28:06;;;;;;;8.15;1.63;;;;;;;17.14;56.21;101650.09;4993948;28;20042;-76
2022/02/05 13:36:23;;;;;;;11.13;3.15;;;;;;;17.08;56.89;101654.50;4888890;29;20054;-75
2022/02/05 13:39:07;;;;;;;7.93;3.97;;;;;;;17.03;57.14;101650.94;4980021;28;20513;-75
2022/02/05 13:41:40;;;;;;;7.13;2.13;;;;;;;16.95;57.38;101653.59;4987144;28;20049;-75
2022/02/05 13:44:14;;;;;;;7.20;2.97;;;;;;;16.80;57.62;101647.31;5008846;28;20137;-75
2022/02/05 13:46:43;;;;;;;10.40;5.25;;;;;;;16.67;57.91;101649.03;4999631;28;20555;-75
2022/02/05 13:49:15;;;;;;;10.88;6.72;;;;;;;16.61;58.06;101654.31;5007010;28;20058;-76
2022/02/05 13:51:46;;;;;;;7.55;3.33;;;;;;;16.56;58.20;101650.69;5007444;28;20041;-76